Time;durP1;ratioP1;P1;durP2;ratioP2;P2;SDS_P1;SDS_P2;PMS_P1;PMS_P2;Temp;Humidity;BMP_temperature;BMP_pressure;BME280_temperature;BME280_humidity;BME280_pressure;Samples;Min_cycle;Max_cycle;Signal;HPM_P1;HPM_P2
2022/05/08 00:08:14;;;;;;;2.35;1.70;;;16.80;63.00;;;;;;20706790;28;20682;-74
2022/05/08 00:18:14;;;;;;;1.88;1.40;;;16.80;63.00;;;;;;20694076;28;20040;-75
2022/05/08 00:28:15;;;;;;;2.08;1.52;;;16.80;63.00;;;;;;20720008;28;20044;-74
2022/05/08 00:38:15;;;;;;;3.58;2.08;;;16.80;63.00;;;;;;20715958;28;20057;-74
2022/05/08 00:48:16;;;;;;;2.42;1.80;;;16.80;63.00;;;;;;20734694;28;20034;-73
2022/05/08 00:58:16;;;;;;;2.70;1.83;;;16.80;62.90;;;;;;20733283;28;20124;-74
2022/05/08 01:08:17;;;;;;;2.22;1.40;;;16.80;62.90;;;;;;20771549;28;20375;-73
2022/05/08 01:18:17;;;;;;;3.28;1.80;;;16.80;62.80;;;;;;20813597;28;20041;-75
2022/05/08 01:28:18;;;;;;;2.80;1.63;;;16.80;62.70;;;;;;20796943;28;20033;-74
2022/05/08 01:38:20;;;;;;;3.03;1.73;;;16.70;62.70;;;;;;20779340;28;20044;-74
2022/05/08 01:48:25;;;;;;;3.15;1.75;;;16.70;62.60;;;;;;20778603;28;20044;-74
2022/05/08 01:58:27;;;;;;;3.97;1.50;;;16.70;62.50;;;;;;20794731;28;20103;-74
2022/05/08 02:08:27;;;;;;;3.30;1.92;;;16.70;62.40;;;;;;20777659;28;20037;-74
2022/05/08 02:18:28;;;;;;;3.75;1.20;;;16.70;62.50;;;;;;20777433;28;20112;-73
2022/05/08 02:28:28;;;;;;;6.22;1.73;;;16.70;62.30;;;;;;20791567;28;20037;-73
2022/05/08 02:38:29;;;;;;;5.43;2.05;;;16.60;62.20;;;;;;20758534;28;20039;-74
2022/05/08 02:48:30;;;;;;;5.93;2.03;;;16.60;62.10;;;;;;20774493;28;20049;-75
2022/05/08 02:58:32;;;;;;;4.05;1.60;;;16.60;62.00;;;;;;20773762;28;20389;-74
2022/05/08 03:08:33;;;;;;;2.78;1.60;;;16.60;61.90;;;;;;20789739;28;20044;-74
2022/05/08 03:18:38;;;;;;;4.90;1.80;;;16.60;61.80;;;;;;20772736;28;20045;-74
2022/05/08 03:28:39;;;;;;;5.15;1.90;;;16.60;61.80;;;;;;20773065;28;20080;-74
2022/05/08 03:38:41;;;;;;;2.50;1.23;;;16.50;61.60;;;;;;20787785;28;20371;-74
2022/05/08 03:48:41;;;;;;;5.07;1.52;;;16.50;61.50;;;;;;20786670;28;20040;-75
2022/05/08 03:58:42;;;;;;;3.38;1.30;;;16.50;61.50;;;;;;20787555;28;20029;-74
2022/05/08 04:08:43;;;;;;;3.28;1.40;;;16.50;61.50;;;;;;20777261;28;20114;-74
2022/05/08 04:18:44;;;;;;;2.67;1.40;;;16.50;61.40;;;;;;20785703;28;20039;-74
2022/05/08 04:28:44;;;;;;;6.65;1.75;;;16.40;61.20;;;;;;20767565;28;20039;-74
2022/05/08 04:38:45;;;;;;;4.43;1.50;;;16.40;61.20;;;;;;20800200;28;20116;-74
2022/05/08 04:48:45;;;;;;;6.70;1.52;;;16.40;61.10;;;;;;20767934;28;20040;-74
2022/05/08 04:58:46;;;;;;;3.60;1.10;;;16.40;61.00;;;;;;20782552;28;20103;-75
2022/05/08 05:08:46;;;;;;;3.67;1.40;;;16.40;60.90;;;;;;20815612;28;20045;-74
2022/05/08 05:18:47;;;;;;;5.50;1.25;;;16.40;60.80;;;;;;20812730;28;20216;-73
2022/05/08 05:28:48;;;;;;;1.67;0.93;;;16.30;60.80;;;;;;20797025;28;20038;-73
2022/05/08 05:38:48;;;;;;;2.58;1.23;;;16.40;60.80;;;;;;20780365;28;20106;-75
2022/05/08 05:48:49;;;;;;;4.77;1.40;;;16.40;60.70;;;;;;20780136;28;20033;-74
2022/05/08 05:58:49;;;;;;;3.40;1.90;;;16.40;60.70;;;;;;20810818;28;20304;-74
2022/05/08 06:08:50;;;;;;;2.92;1.00;;;16.40;60.60;;;;;;20809803;28;20041;-74
2022/05/08 06:18:50;;;;;;;4.13;1.10;;;16.40;60.50;;;;;;20793223;28;20120;-74
2022/05/08 06:28:51;;;;;;;3.08;1.08;;;16.40;60.50;;;;;;20779112;28;20384;-74
2022/05/08 06:38:53;;;;;;;3.67;1.20;;;16.50;60.50;;;;;;20770478;28;20107;-74
2022/05/08 06:48:53;;;;;;;4.25;1.20;;;16.50;60.40;;;;;;20781819;28;20041;-73
2022/05/08 07:09:13;;;;;;;6.20;1.20;;;16.50;60.30;;;;;;21071155;23;20154;-74
2022/05/08 07:19:14;;;;;;;2.25;0.82;;;16.50;60.10;;;;;;20741245;28;20046;-73
2022/05/08 07:29:14;;;;;;;1.77;1.10;;;16.50;60.10;;;;;;20713219;28;20038;-78
2022/05/08 07:39:15;;;;;;;4.17;0.90;;;16.50;60.00;;;;;;20689906;28;20141;-77
2022/05/08 07:49:17;;;;;;;2.35;0.93;;;16.50;59.80;;;;;;20705583;28;20773;-78
2022/05/08 07:59:17;;;;;;;1.90;0.90;;;16.50;59.70;;;;;;20721334;28;20026;-81
2022/05/08 08:09:19;;;;;;;4.38;0.80;;;16.60;60.30;;;;;;20723965;28;20289;-82
2022/05/08 08:19:19;;;;;;;3.10;0.90;;;16.60;59.60;;;;;;20719179;28;20486;-79
2022/05/08 08:29:20;;;;;;;2.20;0.68;;;16.60;59.50;;;;;;20761448;28;20029;-76
2022/05/08 08:39:21;;;;;;;4.53;0.82;;;16.60;59.30;;;;;;20737684;28;20589;-81
2022/05/08 08:49:22;;;;;;;1.27;0.60;;;16.50;59.20;;;;;;20772830;28;20030;-78
2022/05/08 08:59:23;;;;;;;1.67;0.82;;;16.60;59.10;;;;;;20751466;28;20045;-78
2022/05/08 09:09:27;;;;;;;1.98;0.82;;;16.50;59.00;;;;;;20742249;28;20131;-80
2022/05/08 09:19:40;;;;;;;1.05;0.55;;;16.60;59.00;;;;;;20756638;28;20029;-77
2022/05/08 09:29:47;;;;;;;5.20;0.80;;;16.60;58.90;;;;;;20771419;28;20078;-78
2022/05/08 09:39:47;;;;;;;2.20;0.65;;;16.60;58.80;;;;;;20818669;28;20362;-83
2022/05/08 09:49:48;;;;;;;3.10;0.68;;;16.60;58.70;;;;;;20796536;28;20108;-75
2022/05/08 09:59:48;;;;;;;2.55;0.63;;;16.60;58.60;;;;;;20812505;28;20041;-78
2022/05/08 10:20:08;;;;;;;0.93;0.52;;;16.60;58.20;;;;;;20814090;28;20110;-77
2022/05/08 10:30:18;;;;;;;2.70;0.60;;;16.50;58.10;;;;;;20793710;28;20037;-77
2022/05/08 10:40:22;;;;;;;3.92;0.47;;;16.50;58.00;;;;;;20792051;28;20037;-77
2022/05/08 10:50:23;;;;;;;1.15;0.60;;;16.50;58.60;;;;;;20824808;28;20038;-77
2022/05/08 11:00:27;;;;;;;3.00;0.65;;;16.50;57.90;;;;;;20775172;28;20084;-77
2022/05/08 11:10:32;;;;;;;1.95;0.88;;;16.50;57.90;;;;;;20806908;28;20546;-77
2022/05/08 11:20:37;;;;;;;1.58;0.68;;;16.50;57.70;;;;;;20790036;28;20120;-78
2022/05/08 11:30:38;;;;;;;2.35;0.70;;;16.50;57.60;;;;;;20772931;28;20497;-77
2022/05/08 11:40:39;;;;;;;2.50;0.68;;;16.50;57.50;;;;;;20788405;28;20060;-77
2022/05/08 11:50:52;;;;;;;3.17;0.70;;;16.50;57.40;;;;;;20789712;28;20514;-77
2022/05/08 12:00:52;;;;;;;3.35;1.02;;;16.50;57.10;;;;;;20787520;28;20029;-77
2022/05/08 12:10:53;;;;;;;1.85;0.55;;;16.50;57.00;;;;;;20803730;28;20474;-76
2022/05/08 12:20:54;;;;;;;2.50;0.98;;;16.50;56.70;;;;;;20781871;28;20038;-76
2022/05/08 12:30:54;;;;;;;3.47;0.88;;;16.50;56.20;;;;;;20729317;28;20121;-76
2022/05/08 12:40:56;;;;;;;2.15;0.77;;;16.50;56.00;;;;;;20752881;28;20038;-76
2022/05/08 12:50:57;;;;;;;1.48;0.90;;;16.50;55.80;;;;;;20736416;28;20048;-76
2022/05/08 13:00:58;;;;;;;2.85;1.02;;;16.60;55.20;;;;;;20735190;28;20041;-76
2022/05/08 13:11:02;;;;;;;3.97;0.98;;;16.60;55.00;;;;;;20733713;28;20030;-77
2022/05/08 13:21:03;;;;;;;1.90;0.80;;;16.70;54.90;;;;;;20734856;28;20045;-76
2022/05/08 13:31:04;;;;;;;2.63;0.70;;;16.70;54.70;;;;;;20733055;28;20034;-76
2022/05/08 13:41:05;;;;;;;5.30;0.93;;;16.80;54.70;;;;;;20698752;28;20292;-76
2022/05/08 13:51:05;;;;;;;4.07;1.13;;;16.90;54.30;;;;;;20714845;28;20045;-77
2022/05/08 14:01:06;;;;;;;4.72;0.70;;;17.00;54.50;;;;;;20748363;28;20300;-76
2022/05/08 14:11:06;;;;;;;4.57;1.08;;;17.10;54.40;;;;;;20715002;28;20532;-76
2022/05/08 14:21:07;;;;;;;2.42;0.50;;;17.20;54.20;;;;;;20728898;28;20065;-75
2022/05/08 14:41:27;;;;;;;2.42;0.73;;;17.40;54.30;;;;;;20738136;28;20037;-77
2022/05/08 14:51:29;;;;;;;0.98;0.40;;;17.50;54.30;;;;;;20741461;28;20033;-77
2022/05/08 15:01:29;;;;;;;1.33;0.70;;;17.60;54.50;;;;;;20741228;28;20041;-77
2022/05/08 15:11:30;;;;;;;1.45;0.45;;;17.60;54.60;;;;;;20674948;28;20084;-77
2022/05/08 15:21:30;;;;;;;2.97;0.75;;;17.70;54.40;;;;;;20609608;28;20038;-77
2022/05/08 15:31:32;;;;;;;1.23;0.57;;;17.80;54.30;;;;;;20682796;28;20534;-77
2022/05/08 15:41:32;;;;;;;1.73;0.70;;;17.90;54.20;;;;;;20672398;28;20030;-77
2022/05/08 15:51:34;;;;;;;0.90;0.52;;;18.00;54.10;;;;;;20641115;28;20057;-77
2022/05/08 16:01:34;;;;;;;1.35;0.88;;;18.00;54.00;;;;;;20698760;28;20498;-77
2022/05/08 16:11:35;;;;;;;0.43;0.43;;;18.10;54.00;;;;;;20701108;28;20045;-77
2022/05/08 16:31:55;;;;;;;1.02;0.60;;;18.20;54.00;;;;;;20674100;28;20394;-76
2022/05/08 16:41:55;;;;;;;0.70;0.50;;;18.20;54.10;;;;;;20655751;28;20034;-72
2022/05/08 16:51:56;;;;;;;3.72;0.82;;;18.20;54.20;;;;;;20640166;28;20035;-76
2022/05/08 17:01:56;;;;;;;0.47;0.47;;;18.20;54.20;;;;;;20611066;28;20039;-76
2022/05/08 17:11:57;;;;;;;0.87;0.40;;;18.20;54.20;;;;;;20736566;28;20042;-77
2022/05/08 17:21:57;;;;;;;1.75;0.50;;;18.20;54.30;;;;;;20703801;28;20038;-72
2022/05/08 17:31:58;;;;;;;2.50;0.32;;;18.20;54.30;;;;;;20735975;28;20398;-73
2022/05/08 17:42:00;;;;;;;3.03;0.75;;;18.20;54.40;;;;;;20700262;28;20045;-72
2022/05/08 17:52:02;;;;;;;1.40;0.88;;;18.20;54.20;;;;;;20732106;28;20061;-73
2022/05/08 18:12:23;;;;;;;1.17;0.50;;;18.10;54.30;;;;;;20734345;28;20046;-75
2022/05/08 18:22:23;;;;;;;1.85;0.75;;;18.00;54.60;;;;;;20744810;28;20097;-70
2022/05/08 18:32:24;;;;;;;1.67;0.50;;;17.90;54.90;;;;;;20711339;28;20045;-71
2022/05/08 18:42:24;;;;;;;1.67;0.70;;;17.90;55.00;;;;;;20728794;28;20117;-71
2022/05/08 18:52:28;;;;;;;1.38;0.55;;;17.80;55.10;;;;;;20741555;28;20041;-70
2022/05/08 19:02:28;;;;;;;1.25;0.40;;;17.80;55.30;;;;;;20709625;28;20375;-71
2022/05/08 19:12:29;;;;;;;2.67;0.98;;;17.70;55.40;;;;;;20719524;28;20038;-72
2022/05/08 19:22:31;;;;;;;1.20;0.65;;;17.70;55.60;;;;;;20738517;28;20045;-72
2022/05/08 19:42:52;;;;;;;1.23;0.68;;;17.60;55.80;;;;;;20641737;28;20133;-72
2022/05/08 19:52:53;;;;;;;4.68;1.00;;;17.50;55.80;;;;;;20682553;28;20038;-74
2022/05/08 20:02:54;;;;;;;3.87;0.90;;;17.50;56.50;;;;;;20737091;28;20542;-72
2022/05/08 20:12:55;;;;;;;2.55;0.90;;;17.50;55.80;;;;;;20688031;28;20304;-72
2022/05/08 20:22:57;;;;;;;1.75;0.90;;;17.40;55.80;;;;;;20721619;28;20065;-72
2022/05/08 20:32:59;;;;;;;2.17;0.70;;;17.40;55.80;;;;;;20705544;28;20037;-73
2022/05/08 20:42:59;;;;;;;1.73;0.90;;;17.40;55.80;;;;;;20721064;28;20042;-72
2022/05/08 20:53:00;;;;;;;2.45;1.00;;;17.40;55.90;;;;;;20713916;28;20091;-72
2022/05/08 21:03:01;;;;;;;1.70;0.88;;;17.30;55.90;;;;;;20719183;28;20045;-73
2022/05/08 21:13:02;;;;;;;2.50;0.73;;;17.30;55.80;;;;;;20750795;28;20436;-73
2022/05/08 21:23:02;;;;;;;2.97;0.93;;;17.30;55.80;;;;;;20718886;28;20042;-73
2022/05/08 21:33:03;;;;;;;2.20;0.93;;;17.30;55.80;;;;;;20733529;28;20038;-73
2022/05/08 21:43:04;;;;;;;1.40;0.90;;;17.30;55.80;;;;;;20716124;28;20066;-73
2022/05/08 21:53:05;;;;;;;2.50;1.27;;;17.30;55.80;;;;;;20731257;28;20096;-72
2022/05/08 22:03:06;;;;;;;6.45;1.60;;;17.20;55.60;;;;;;20713594;28;20697;-73
2022/05/08 22:13:06;;;;;;;2.05;0.82;;;17.20;55.60;;;;;;20730223;28;20057;-72
2022/05/08 22:23:07;;;;;;;3.30;1.23;;;17.20;55.50;;;;;;20729246;28;20045;-74
2022/05/08 22:33:07;;;;;;;2.45;0.85;;;17.20;55.40;;;;;;20696449;28;20061;-72
2022/05/08 22:43:08;;;;;;;1.40;0.93;;;17.20;55.40;;;;;;20727625;28;20041;-72
2022/05/08 22:53:09;;;;;;;1.83;0.98;;;17.10;55.30;;;;;;20726937;28;20372;-72
2022/05/08 23:03:10;;;;;;;3.30;1.10;;;17.10;55.30;;;;;;20710270;28;20034;-74
2022/05/08 23:13:10;;;;;;;1.98;0.95;;;17.10;55.20;;;;;;20725316;28;20038;-73
2022/05/08 23:23:11;;;;;;;1.60;0.80;;;17.10;55.20;;;;;;20740919;28;20058;-73
2022/05/08 23:33:12;;;;;;;1.92;1.15;;;17.00;55.30;;;;;;20708138;28;20474;-72
2022/05/08 23:43:13;;;;;;;2.65;0.98;;;17.00;55.40;;;;;;20708543;28;20470;-72
2022/05/08 23:53:13;;;;;;;1.13;0.80;;;17.00;55.50;;;;;;20724105;28;20026;-73
